Airfield :
LOGIN :

Register | Disclaimer

   EN    FR    IT 

 










Legend :    VFR   Marginal VFR   IFR   Intensive IFR   Very Intensive IFR
Visi :
Ceiling :
>= 8 km
>= 3000ft
5 to 8 km
1000 to 3000 ft
1500m to 5 km
500 to 1000 ft
800 to 1500m
200 to 500 ft
< 800m
< 200 ft
Symbols :   Thunderstorms  Fog  Heavy snow  Heavy precipitations  Wind > 20 kt
SIGMETs :     Misc.  Thunderstorms  Icing  Turbulence  Mountain Waves  Volcanic Ashes






- Airport Elevation : 1416 ft
- IATA code : ZRH


LSZH - Zurich

CURRENT METAR :
  • 270150Z AUTO 31001KT 0500 0100N R14/0500N R16/0500N R28/0800U R34/0800D FG VCFG VV002 15/15 Q1017 TEMPO 0300 FG VV001

EXPIRED METARs :
  • 270120Z AUTO 36002KT 0650 0100N R14/0900U R16/0550N R28/0750D R34/0650D FG VCFG VV002 15/15 Q1017 BECMG 0500 FG VV001
  • 270050Z AUTO 32004KT 9999 0050N R14/0400D R16/0650U R28/P2000N R34/P2000N BCFG VCFG FEW010 15/15 Q1017 BECMG 2500 BCFG BKN002
  • 270020Z AUTO 31002KT 9999 2400N VCFG FEW001 BKN060 15/15 Q1017 BECMG 2500 BCFG BKN002
  • 262350Z AUTO 33002KT 9999 VCFG FEW001 SCT060 BKN070 16/16 Q1017 NOSIG
  • 262320Z AUTO VRB01KT 9999 SCT060 BKN075 16/16 Q1017 NOSIG

TAF TAF LSZH
Valid from the 27 at 00:00 until the 28 at 06:00 UTC


262325Z 2700/2806 VRB02KT 9999 FEW045 SCT070 TX25/2715Z TN15/2704Z TN15/2804Z
PROB40 2703/2708 2500 BCFG BKN002
PROB30 2703/2707 0500 FG VV001
TEMPO 2715/2806 SHRA SCT040TCU
PROB30
TEMPO 2717/2723 3000 TSRA SCT040CB
ATIS : +41 43 816 2295 (DEP) +41 43 816 2294 (ARR)



MET'MAP, your aeronautical weather chart ! - Copyright ORBIFLY December 2007 - Disclaimer

ORBIFLY MET'MAP TEAM :

Programming & Development : Alexandra Zaïnal
Concept & original design : Baudouin d'Aumeries
Assistance for programming : Marc-Olivier Méhu
Technical & hardware support : Manuel Goepfert

Contact : metmap@orbifly.com




SOURCES & CREDITS :

   NOAA